createdAt,value
2022-10-17T00:01:04.710Z,17.19
2022-10-17T00:03:33.127Z,17.15
2022-10-17T00:06:09.468Z,17.20
2022-10-17T00:08:38.552Z,17.22
2022-10-17T00:11:09.811Z,17.19
2022-10-17T00:13:37.373Z,17.17
2022-10-17T00:16:05.490Z,17.13
2022-10-17T00:18:33.178Z,17.16
2022-10-17T00:21:00.626Z,17.11
2022-10-17T00:23:30.401Z,17.07
2022-10-17T00:26:02.637Z,17.06
2022-10-17T00:28:30.570Z,17.04
2022-10-17T00:31:00.351Z,16.98
2022-10-17T00:33:29.632Z,17.06
2022-10-17T00:36:07.727Z,16.99
2022-10-17T00:38:37.063Z,17.03
2022-10-17T00:41:05.358Z,17.00
2022-10-17T00:43:57.374Z,17.00
2022-10-17T00:46:30.774Z,16.96
2022-10-17T00:49:02.645Z,16.90
2022-10-17T00:51:41.974Z,16.81
2022-10-17T00:54:16.146Z,16.73
2022-10-17T00:56:47.133Z,16.61
2022-10-17T00:59:17.766Z,16.55
2022-10-17T01:01:55.333Z,16.56
2022-10-17T01:04:23.205Z,16.46
2022-10-17T01:06:51.221Z,16.47
2022-10-17T01:09:19.342Z,16.43
2022-10-17T01:11:54.379Z,16.56
2022-10-17T01:14:21.807Z,16.71
2022-10-17T01:17:02.373Z,16.74
2022-10-17T01:19:35.929Z,16.74
2022-10-17T01:22:12.673Z,16.82
2022-10-17T01:24:54.667Z,16.84
2022-10-17T01:27:44.623Z,16.86
2022-10-17T01:30:30.762Z,16.94
2022-10-17T01:33:06.155Z,16.83
2022-10-17T01:36:05.884Z,16.77
2022-10-17T01:38:49.183Z,16.66
2022-10-17T01:41:29.058Z,16.52
2022-10-17T01:44:04.644Z,16.47
2022-10-17T01:46:40.138Z,16.41
2022-10-17T01:49:11.646Z,16.30
2022-10-17T01:51:47.676Z,16.26
2022-10-17T01:54:21.891Z,16.35
2022-10-17T01:56:53.659Z,16.47
2022-10-17T01:59:26.547Z,16.44
2022-10-17T02:01:57.884Z,16.48
2022-10-17T02:04:26.764Z,16.44
2022-10-17T02:06:54.549Z,16.47
2022-10-17T02:09:26.375Z,16.48
2022-10-17T02:12:33.082Z,16.47
2022-10-17T02:15:15.492Z,16.32
2022-10-17T02:17:50.485Z,16.35
2022-10-17T02:20:25.780Z,16.45
2022-10-17T02:23:09.542Z,16.45
2022-10-17T02:25:44.007Z,16.41
2022-10-17T02:28:33.776Z,16.37
2022-10-17T02:31:04.311Z,16.27
2022-10-17T02:33:37.468Z,16.26
2022-10-17T02:36:11.663Z,16.14
2022-10-17T02:38:40.760Z,16.14
2022-10-17T02:41:14.102Z,16.02
2022-10-17T02:43:45.363Z,16.02
2022-10-17T02:46:21.292Z,16.14
2022-10-17T02:49:23.371Z,15.97
2022-10-17T02:52:15.995Z,15.85
2022-10-17T02:54:58.320Z,15.85
2022-10-17T02:57:36.670Z,15.84
2022-10-17T03:00:07.725Z,15.75
2022-10-17T03:02:49.514Z,15.74
2022-10-17T03:05:24.081Z,15.69
2022-10-17T03:07:52.860Z,15.72
2022-10-17T03:10:21.611Z,15.84
2022-10-17T03:12:49.904Z,15.89
2022-10-17T03:15:17.575Z,15.97
2022-10-17T03:20:19.086Z,15.92
2022-10-17T03:22:47.291Z,15.90
2022-10-17T03:25:15.305Z,15.90
2022-10-17T03:27:43.850Z,16.02
2022-10-17T03:30:11.742Z,16.16
2022-10-17T03:32:39.503Z,16.11
2022-10-17T03:35:08.405Z,16.05
2022-10-17T03:37:40.083Z,16.08
2022-10-17T03:40:08.844Z,16.11
2022-10-17T03:42:37.677Z,16.19
2022-10-17T03:45:05.971Z,16.18
2022-10-17T03:47:34.685Z,16.21
2022-10-17T03:50:02.746Z,16.10
2022-10-17T03:52:33.500Z,16.16
2022-10-17T03:55:02.606Z,16.15
2022-10-17T03:57:31.048Z,16.19
2022-10-17T03:59:59.972Z,16.17
2022-10-17T04:02:27.768Z,16.08
2022-10-17T04:04:55.670Z,16.17
2022-10-17T04:07:23.634Z,16.16
2022-10-17T04:09:51.223Z,16.17
2022-10-17T04:12:20.742Z,16.27
2022-10-17T04:14:48.580Z,16.24
2022-10-17T04:17:17.367Z,16.09
2022-10-17T04:19:46.631Z,15.97
2022-10-17T04:22:16.832Z,15.91
2022-10-17T04:24:44.854Z,15.60
2022-10-17T04:27:24.974Z,15.51
2022-10-17T04:29:52.744Z,15.57
2022-10-17T04:32:25.910Z,15.62
2022-10-17T04:35:07.795Z,15.75
2022-10-17T04:37:35.390Z,15.82
2022-10-17T04:40:09.363Z,15.85
2022-10-17T04:42:37.187Z,15.80
2022-10-17T04:45:06.457Z,15.75
2022-10-17T04:47:35.577Z,15.71
2022-10-17T04:50:04.639Z,15.63
2022-10-17T04:52:37.481Z,15.57
2022-10-17T04:55:06.183Z,15.71
2022-10-17T04:57:35.794Z,15.74
2022-10-17T05:00:16.582Z,15.65
2022-10-17T05:03:00.188Z,15.74
2022-10-17T05:05:29.160Z,15.84
2022-10-17T05:07:58.305Z,15.79
2022-10-17T05:10:30.740Z,15.66
2022-10-17T05:12:59.992Z,15.59
2022-10-17T05:15:31.509Z,15.57
2022-10-17T05:17:59.125Z,15.66
2022-10-17T05:20:28.772Z,15.71
2022-10-17T05:22:58.530Z,15.70
2022-10-17T05:25:29.316Z,15.67
2022-10-17T05:27:56.923Z,15.77
2022-10-17T05:30:24.728Z,15.71
2022-10-17T05:32:57.334Z,15.81
2022-10-17T05:35:25.816Z,15.80
2022-10-17T05:37:53.882Z,15.81
2022-10-17T05:40:22.996Z,15.81
2022-10-17T05:42:53.543Z,15.75
2022-10-17T05:45:23.294Z,15.83
2022-10-17T05:47:52.112Z,15.84
2022-10-17T05:50:22.074Z,15.75
2022-10-17T05:53:02.637Z,15.71
2022-10-17T05:55:30.411Z,15.79
2022-10-17T05:58:00.925Z,15.68
2022-10-17T06:00:33.779Z,15.71
2022-10-17T06:03:01.303Z,15.67
2022-10-17T06:05:28.927Z,15.81
2022-10-17T06:08:01.124Z,15.65
2022-10-17T06:10:31.958Z,15.75
2022-10-17T06:13:00.901Z,15.76
2022-10-17T06:15:28.740Z,15.73
2022-10-17T06:18:02.113Z,15.69
2022-10-17T06:20:29.500Z,15.81
2022-10-17T06:22:57.062Z,15.84
2022-10-17T06:25:43.206Z,15.82
2022-10-17T06:28:11.473Z,15.90
2022-10-17T06:30:40.589Z,15.97
2022-10-17T06:33:08.346Z,16.10
2022-10-17T06:35:37.209Z,16.00
2022-10-17T06:38:05.108Z,16.03
2022-10-17T06:40:34.457Z,16.00
2022-10-17T06:43:02.532Z,16.04
2022-10-17T06:45:52.840Z,16.10
2022-10-17T06:48:40.383Z,16.19
2022-10-17T06:51:38.339Z,16.35
2022-10-17T06:54:09.245Z,16.53
2022-10-17T06:56:48.744Z,16.62
2022-10-17T06:59:31.283Z,16.62
2022-10-17T07:02:10.389Z,16.79
2022-10-17T07:04:39.331Z,16.92
2022-10-17T07:07:06.895Z,16.76
2022-10-17T07:09:35.424Z,16.84
2022-10-17T07:12:03.476Z,16.95
2022-10-17T07:14:32.108Z,17.08
2022-10-17T07:17:02.281Z,17.34
2022-10-17T07:19:32.676Z,17.40
2022-10-17T07:22:01.289Z,17.40
2022-10-17T07:24:30.996Z,17.54
2022-10-17T07:27:06.458Z,17.82
2022-10-17T07:29:34.296Z,18.25
2022-10-17T07:32:08.710Z,18.28
2022-10-17T07:34:36.790Z,18.31
2022-10-17T07:37:16.252Z,18.29
2022-10-17T07:39:56.627Z,18.70
2022-10-17T07:42:24.305Z,18.86
2022-10-17T07:44:51.876Z,18.97
2022-10-17T07:47:21.842Z,19.12
2022-10-17T07:49:50.391Z,19.29
2022-10-17T07:52:18.866Z,19.52
2022-10-17T07:54:46.340Z,19.56
2022-10-17T07:57:13.871Z,19.78
2022-10-17T07:59:41.909Z,19.87
2022-10-17T08:02:25.769Z,20.16
2022-10-17T08:04:54.086Z,20.21
2022-10-17T08:07:25.318Z,20.31
2022-10-17T08:09:56.572Z,20.53
2022-10-17T08:12:25.983Z,20.53
2022-10-17T08:14:53.723Z,20.76
2022-10-17T08:17:21.734Z,20.53
2022-10-17T08:19:49.594Z,20.35
2022-10-17T08:22:17.045Z,20.20
2022-10-17T08:24:46.247Z,20.74
2022-10-17T08:27:14.519Z,21.25
2022-10-17T08:29:42.243Z,21.59
2022-10-17T08:32:10.460Z,21.58
2022-10-17T08:34:38.857Z,21.88
2022-10-17T08:37:06.561Z,22.15
2022-10-17T08:39:34.107Z,22.09
2022-10-17T08:42:04.752Z,21.85
2022-10-17T08:44:47.638Z,21.18
2022-10-17T08:47:23.426Z,21.27
2022-10-17T08:49:58.352Z,21.80
2022-10-17T08:52:42.834Z,22.74
2022-10-17T08:55:45.312Z,23.31
2022-10-17T08:58:15.440Z,22.29
2022-10-17T09:01:29.168Z,22.16
2022-10-17T09:04:11.808Z,22.64
2022-10-17T09:06:44.983Z,22.71
2022-10-17T09:09:49.982Z,23.64
2022-10-17T09:12:24.875Z,23.63
2022-10-17T09:15:29.544Z,24.85
2022-10-17T09:18:00.358Z,24.68
2022-10-17T09:20:37.239Z,23.56
2022-10-17T09:23:16.809Z,23.17
2022-10-17T09:25:47.512Z,24.26
2022-10-17T09:28:24.391Z,24.15
2022-10-17T09:31:03.567Z,25.03
2022-10-17T09:33:55.883Z,26.29
2022-10-17T09:36:28.848Z,27.22
2022-10-17T09:39:07.721Z,26.99
2022-10-17T09:41:51.160Z,27.21
2022-10-17T09:44:24.655Z,27.33
2022-10-17T09:47:10.945Z,28.38
2022-10-17T09:49:44.302Z,27.47
2022-10-17T09:52:18.423Z,28.37
2022-10-17T09:54:49.599Z,28.50
2022-10-17T09:57:20.396Z,28.82
2022-10-17T10:00:00.283Z,29.31
2022-10-17T10:02:32.644Z,29.78
2022-10-17T10:05:07.279Z,28.64
2022-10-17T10:07:39.361Z,29.23
2022-10-17T10:10:24.096Z,28.64
2022-10-17T10:13:13.275Z,28.53
2022-10-17T10:15:43.734Z,29.30
2022-10-17T10:18:35.845Z,29.95
2022-10-17T10:21:09.343Z,29.36
2022-10-17T10:23:40.613Z,28.56
2022-10-17T10:26:23.244Z,28.99
2022-10-17T10:29:20.637Z,29.44
2022-10-17T10:31:49.814Z,29.80
2022-10-17T10:34:29.358Z,30.21
2022-10-17T10:36:59.667Z,29.83
2022-10-17T10:39:30.033Z,30.26
2022-10-17T10:41:58.365Z,31.19
2022-10-17T10:44:28.964Z,30.28
2022-10-17T10:47:16.061Z,30.74
2022-10-17T10:49:44.873Z,30.90
2022-10-17T10:52:25.634Z,29.72
2022-10-17T10:55:35.136Z,29.20
2022-10-17T10:58:27.641Z,28.17
2022-10-17T11:00:56.726Z,28.41
2022-10-17T11:03:36.313Z,29.05
2022-10-17T11:06:11.781Z,29.30
2022-10-17T11:08:46.375Z,29.86
2022-10-17T11:11:23.862Z,30.05
2022-10-17T11:14:00.556Z,30.36
2022-10-17T11:16:33.533Z,30.73
2022-10-17T11:19:15.949Z,30.16
2022-10-17T11:22:01.236Z,28.34
2022-10-17T11:24:37.693Z,28.91
2022-10-17T11:27:07.588Z,28.86
2022-10-17T11:29:39.366Z,28.50
2022-10-17T11:32:23.076Z,28.53
2022-10-17T11:34:57.008Z,29.15
2022-10-17T11:37:30.635Z,30.20
2022-10-17T11:40:19.148Z,31.02
2022-10-17T11:43:01.501Z,31.18
2022-10-17T11:45:36.093Z,31.31
2022-10-17T11:48:27.189Z,29.47
2022-10-17T11:54:11.049Z,29.55
2022-10-17T11:56:47.304Z,28.61
2022-10-17T11:59:20.852Z,29.82
2022-10-17T12:02:05.042Z,30.33
2022-10-17T12:04:50.958Z,28.61
2022-10-17T12:07:37.810Z,28.15
2022-10-17T12:10:40.542Z,29.06
2022-10-17T12:13:26.830Z,30.49
2022-10-17T12:15:59.015Z,31.20
2022-10-17T12:18:29.939Z,30.91
2022-10-17T12:20:59.912Z,31.39
2022-10-17T12:23:29.466Z,30.72
2022-10-17T12:26:04.897Z,30.30
2022-10-17T12:28:37.238Z,29.71
2022-10-17T12:31:10.193Z,29.05
2022-10-17T12:33:49.428Z,29.59
2022-10-17T12:36:17.177Z,30.00
2022-10-17T12:38:50.058Z,30.67
2022-10-17T12:41:40.768Z,31.15
2022-10-17T12:44:15.206Z,30.51
2022-10-17T12:46:48.304Z,30.97
2022-10-17T12:49:46.381Z,30.96
2022-10-17T12:52:32.430Z,31.33
2022-10-17T12:55:12.137Z,31.44
2022-10-17T12:57:55.752Z,32.00
2022-10-17T13:00:29.004Z,31.95
2022-10-17T13:03:13.862Z,31.05
2022-10-17T13:05:45.987Z,31.62
2022-10-17T13:08:24.635Z,32.76
2022-10-17T13:10:54.553Z,31.36
2022-10-17T13:13:26.508Z,32.76
2022-10-17T13:15:55.684Z,31.69
2022-10-17T13:18:26.803Z,31.83
2022-10-17T13:21:05.570Z,32.77
2022-10-17T13:23:38.573Z,31.60
2022-10-17T13:26:16.055Z,31.06
2022-10-17T13:28:44.509Z,30.78
2022-10-17T13:31:30.206Z,33.71
2022-10-17T13:34:00.632Z,34.65
2022-10-17T13:36:29.790Z,35.31
2022-10-17T13:39:00.658Z,36.43
2022-10-17T13:41:35.937Z,36.61
2022-10-17T13:44:12.974Z,34.78
2022-10-17T13:46:41.671Z,35.60
2022-10-17T13:49:15.364Z,36.63
2022-10-17T13:51:49.367Z,37.28
2022-10-17T13:54:30.832Z,36.62
2022-10-17T13:57:00.230Z,36.91
2022-10-17T13:59:40.633Z,34.92
2022-10-17T14:02:21.577Z,35.05
2022-10-17T14:05:17.782Z,35.07
2022-10-17T14:08:10.185Z,35.21
2022-10-17T14:10:40.267Z,33.68
2022-10-17T14:13:18.114Z,35.31
2022-10-17T14:15:46.221Z,36.44
2022-10-17T14:18:19.761Z,36.38
2022-10-17T14:21:29.226Z,36.66
2022-10-17T14:23:43.133Z,36.94
2022-10-17T14:26:23.922Z,37.56
2022-10-17T14:29:07.791Z,36.19
2022-10-17T14:31:37.610Z,36.62
2022-10-17T14:34:05.655Z,36.69
2022-10-17T14:36:42.266Z,36.49
2022-10-17T14:39:23.909Z,36.83
2022-10-17T14:41:52.820Z,36.57
2022-10-17T14:44:38.629Z,35.74
2022-10-17T14:47:42.134Z,34.80
2022-10-17T14:50:24.308Z,35.59
2022-10-17T14:53:12.864Z,36.02
2022-10-17T14:55:41.091Z,34.66
2022-10-17T14:58:23.018Z,35.19
2022-10-17T15:00:50.559Z,35.47
2022-10-17T15:03:19.442Z,34.49
2022-10-17T15:05:48.846Z,33.50
2022-10-17T15:08:19.090Z,33.25
2022-10-17T15:10:48.754Z,30.93
2022-10-17T15:13:27.623Z,31.46
2022-10-17T15:15:56.962Z,30.55
2022-10-17T15:18:24.471Z,30.25
2022-10-17T15:20:59.791Z,30.70
2022-10-17T15:23:32.695Z,31.25
2022-10-17T15:26:01.885Z,30.88
2022-10-17T15:28:29.889Z,30.32
2022-10-17T15:30:57.548Z,28.64
2022-10-17T15:33:25.320Z,28.17
2022-10-17T15:35:52.991Z,27.59
2022-10-17T15:38:20.910Z,27.06
2022-10-17T15:40:52.077Z,26.72
2022-10-17T15:43:20.332Z,26.57
2022-10-17T15:45:48.308Z,26.04
2022-10-17T15:48:29.882Z,25.79
2022-10-17T15:50:57.694Z,25.81
2022-10-17T15:53:25.247Z,25.58
2022-10-17T15:55:52.815Z,25.50
2022-10-17T15:58:20.532Z,25.30
2022-10-17T16:00:49.344Z,24.92
2022-10-17T16:03:17.024Z,24.68
2022-10-17T16:05:44.617Z,24.30
2022-10-17T16:08:12.244Z,24.13
2022-10-17T16:10:41.244Z,23.95
2022-10-17T16:13:23.376Z,23.85
2022-10-17T16:15:50.957Z,23.75
2022-10-17T16:18:18.664Z,23.38
2022-10-17T16:20:46.809Z,23.42
2022-10-17T16:23:15.577Z,23.29
2022-10-17T16:25:43.963Z,23.23
2022-10-17T16:28:12.081Z,23.18
2022-10-17T16:30:43.023Z,23.13
2022-10-17T16:33:10.851Z,23.05
2022-10-17T16:35:39.837Z,22.84
2022-10-17T16:38:08.201Z,22.63
2022-10-17T16:40:39.932Z,22.53
2022-10-17T16:43:11.464Z,22.37
2022-10-17T16:45:39.177Z,22.30
2022-10-17T16:48:07.061Z,22.16
2022-10-17T16:50:35.787Z,22.08
2022-10-17T16:53:04.328Z,21.95
2022-10-17T16:55:32.058Z,21.85
2022-10-17T16:58:00.182Z,21.78
2022-10-17T17:00:28.102Z,21.72
2022-10-17T17:02:55.688Z,21.67
2022-10-17T17:05:23.317Z,21.59
2022-10-17T17:07:51.308Z,21.61
2022-10-17T17:10:18.796Z,21.50
2022-10-17T17:12:46.660Z,21.47
2022-10-17T17:15:14.384Z,21.39
2022-10-17T17:17:50.445Z,21.28
2022-10-17T17:20:20.497Z,21.26
2022-10-17T17:22:50.786Z,21.18
2022-10-17T17:25:18.312Z,21.15
2022-10-17T17:27:45.808Z,21.05
2022-10-17T17:30:13.324Z,21.03
2022-10-17T17:32:40.821Z,20.95
2022-10-17T17:35:09.861Z,20.93
2022-10-17T17:37:37.625Z,20.95
2022-10-17T17:40:06.236Z,20.93
2022-10-17T17:42:33.816Z,20.88
2022-10-17T17:45:01.832Z,20.80
2022-10-17T17:47:30.154Z,20.79
2022-10-17T17:49:57.917Z,20.71
2022-10-17T17:52:25.474Z,20.60
2022-10-17T17:54:53.465Z,20.56
2022-10-17T17:57:21.502Z,20.54
2022-10-17T17:59:49.869Z,20.51
2022-10-17T18:02:17.652Z,20.44
2022-10-17T18:04:45.324Z,20.38
2022-10-17T18:07:13.249Z,20.27
2022-10-17T18:09:40.694Z,20.28
2022-10-17T18:12:08.593Z,20.33
2022-10-17T18:14:36.209Z,20.30
2022-10-17T18:17:04.732Z,20.23
2022-10-17T18:19:32.255Z,20.18
2022-10-17T18:22:00.674Z,20.12
2022-10-17T18:24:28.500Z,20.00
2022-10-17T18:26:59.738Z,19.94
2022-10-17T18:29:29.498Z,19.91
2022-10-17T18:31:57.458Z,19.92
2022-10-17T18:34:25.679Z,19.83
2022-10-17T18:36:56.600Z,19.78
2022-10-17T18:39:24.342Z,19.70
2022-10-17T18:41:52.005Z,19.67
2022-10-17T18:44:20.221Z,19.62
2022-10-17T18:46:47.914Z,19.58
2022-10-17T18:49:18.985Z,19.57
2022-10-17T18:51:47.024Z,19.54
2022-10-17T18:54:20.343Z,19.49
2022-10-17T18:56:52.967Z,19.42
2022-10-17T18:59:21.794Z,19.37
2022-10-17T19:01:50.536Z,19.43
2022-10-17T19:04:18.285Z,19.32
2022-10-17T19:06:46.216Z,19.26
2022-10-17T19:09:15.758Z,19.13
2022-10-17T19:11:43.782Z,18.98
2022-10-17T19:14:13.542Z,18.96
2022-10-17T19:16:47.231Z,18.93
2022-10-17T19:19:18.606Z,18.83
2022-10-17T19:21:47.448Z,18.82
2022-10-17T19:24:27.490Z,18.84
2022-10-17T19:26:57.905Z,18.81
2022-10-17T19:29:31.234Z,18.74
2022-10-17T19:31:59.617Z,18.68
2022-10-17T19:34:28.155Z,18.80
2022-10-17T19:36:56.357Z,18.86
2022-10-17T19:39:25.236Z,18.79
2022-10-17T19:41:53.583Z,18.83
2022-10-17T19:44:21.216Z,18.91
2022-10-17T19:46:49.465Z,18.87
2022-10-17T19:49:18.257Z,18.84
2022-10-17T19:51:46.232Z,18.72
2022-10-17T19:54:16.520Z,18.72
2022-10-17T19:56:44.603Z,18.63
2022-10-17T19:59:14.101Z,18.54
2022-10-17T20:01:42.591Z,18.46
2022-10-17T20:04:11.729Z,18.48
2022-10-17T20:06:40.414Z,18.55
2022-10-17T20:09:13.943Z,18.64
2022-10-17T20:11:45.073Z,18.66
2022-10-17T20:14:12.672Z,18.51
2022-10-17T20:16:40.558Z,18.48
2022-10-17T20:19:11.271Z,18.52
2022-10-17T20:21:40.014Z,18.44
2022-10-17T20:24:09.811Z,18.38
2022-10-17T20:26:39.156Z,18.36
2022-10-17T20:29:11.886Z,18.29
2022-10-17T20:31:41.896Z,18.23
2022-10-17T20:34:12.070Z,18.17
2022-10-17T20:36:40.352Z,18.13
2022-10-17T20:39:08.819Z,17.99
2022-10-17T20:41:36.372Z,17.99
2022-10-17T20:44:04.643Z,18.06
2022-10-17T20:46:37.287Z,17.99
2022-10-17T20:49:06.840Z,17.95
2022-10-17T20:51:34.418Z,18.02
2022-10-17T20:54:02.757Z,17.99
2022-10-17T20:56:31.938Z,17.94
2022-10-17T20:59:01.238Z,17.92
2022-10-17T21:01:29.278Z,17.85
2022-10-17T21:03:59.675Z,17.84
2022-10-17T21:06:30.330Z,17.75
2022-10-17T21:08:57.924Z,17.66
2022-10-17T21:11:26.406Z,17.77
2022-10-17T21:13:58.158Z,17.80
2022-10-17T21:16:26.569Z,17.80
2022-10-17T21:18:54.772Z,17.63
2022-10-17T21:21:24.759Z,17.59
2022-10-17T21:23:53.696Z,17.62
2022-10-17T21:26:22.249Z,17.62
2022-10-17T21:28:50.433Z,17.70
2022-10-17T21:31:19.516Z,17.63
2022-10-17T21:33:57.287Z,17.56
2022-10-17T21:36:25.310Z,17.58
2022-10-17T21:38:54.987Z,17.62
2022-10-17T21:41:24.250Z,17.67
2022-10-17T21:43:59.184Z,17.74
2022-10-17T21:46:26.688Z,17.79
2022-10-17T21:48:54.044Z,17.64
2022-10-17T21:51:22.770Z,17.69
2022-10-17T21:53:51.159Z,17.62
2022-10-17T21:56:19.619Z,17.57
2022-10-17T21:58:47.782Z,17.58
2022-10-17T22:01:20.501Z,17.62
2022-10-17T22:03:48.862Z,17.52
2022-10-17T22:06:38.698Z,17.47
2022-10-17T22:09:07.310Z,17.37
2022-10-17T22:11:35.575Z,17.42
2022-10-17T22:14:04.618Z,17.34
2022-10-17T22:16:32.931Z,17.26
2022-10-17T22:19:04.919Z,17.24
2022-10-17T22:21:34.886Z,17.15
2022-10-17T22:24:04.296Z,17.16
2022-10-17T22:26:32.515Z,17.19
2022-10-17T22:29:00.197Z,17.15
2022-10-17T22:31:27.679Z,16.91
2022-10-17T22:33:55.619Z,16.90
2022-10-17T22:36:22.900Z,16.85
2022-10-17T22:38:50.245Z,16.96
2022-10-17T22:41:18.091Z,16.99
2022-10-17T22:43:46.124Z,16.97
2022-10-17T22:46:14.425Z,17.09
2022-10-17T22:48:42.179Z,17.03
2022-10-17T22:51:09.534Z,17.01
2022-10-17T22:53:37.984Z,17.04
2022-10-17T22:56:07.386Z,17.05
2022-10-17T22:58:35.495Z,16.98
2022-10-17T23:01:04.305Z,16.85
2022-10-17T23:03:32.245Z,16.77
2022-10-17T23:06:02.970Z,16.81
2022-10-17T23:08:30.379Z,16.81
2022-10-17T23:10:58.525Z,16.74
2022-10-17T23:13:26.096Z,16.65
2022-10-17T23:15:54.335Z,16.68
2022-10-17T23:18:22.698Z,16.72
2022-10-17T23:20:50.943Z,16.69
2022-10-17T23:23:18.862Z,16.70
2022-10-17T23:25:46.220Z,16.61
2022-10-17T23:28:14.100Z,16.62
2022-10-17T23:30:41.454Z,16.66
2022-10-17T23:33:10.471Z,16.71
2022-10-17T23:35:38.270Z,16.68
2022-10-17T23:38:05.664Z,16.68
2022-10-17T23:40:34.784Z,16.73
2022-10-17T23:43:02.902Z,16.75
2022-10-17T23:45:35.980Z,16.70
2022-10-17T23:48:05.702Z,16.77
2022-10-17T23:50:32.959Z,16.82
2022-10-17T23:53:00.622Z,16.64
2022-10-17T23:55:28.295Z,16.65
2022-10-17T23:57:56.606Z,16.54
